Orbital elements of COSMOS 2251 DEB
| Launched | 15 June 1993 |
| Flight ended | 25 April 2026 |
| Launch site | Plesetsk Missile and Space Complex, Russia |
| Owner | Commonwealth of Independent States (former USSR) |
| NORAD ID | 34464 |
| Date fetched |
Epoch osculation |
Inc. [°] |
Ecc. | RA asc node [hr] |
Arg Peri. [°] |
Mean anom [°] |
Mean motion [rev/day] |
Abs. mag |
| Date fetched |
Epoch osculation |
Inc. [°] |
Ecc. | RA asc node [hr] |
Arg Peri. [°] |
Mean anom [°] |
Mean motion [rev/day] |
Abs. mag |
| 2026 May 04 17:57 | 2026 Apr 26 01:50:53 | 73.9509 | 0.00145 | 9.5679 | 263.3140 | 96.6458 | 16.16686 | – |
| 2026 May 03 17:57 | 2026 Apr 26 01:50:53 | 73.9509 | 0.00145 | 9.5679 | 263.3140 | 96.6458 | 16.16686 | – |
| 2026 May 02 17:57 | 2026 Apr 26 01:50:53 | 73.9509 | 0.00145 | 9.5679 | 263.3140 | 96.6458 | 16.16686 | – |
| 2026 May 01 17:56 | 2026 Apr 26 01:50:53 | 73.9509 | 0.00145 | 9.5679 | 263.3140 | 96.6458 | 16.16686 | – |
| 2026 Apr 30 17:56 | 2026 Apr 26 01:50:53 | 73.9509 | 0.00145 | 9.5679 | 263.3140 | 96.6458 | 16.16686 | – |
| 2026 Apr 29 17:57 | 2026 Apr 24 12:30:37 | 73.9574 | 0.00167 | 9.8169 | 274.0386 | 96.6458 | 16.16686 | – |
| 2026 Apr 28 17:56 | 2026 Apr 24 12:30:37 | 73.9574 | 0.00167 | 9.8169 | 274.0386 | 96.6458 | 16.16686 | – |
| 2026 Apr 27 17:58 | 2026 Apr 24 12:30:37 | 73.9574 | 0.00167 | 9.8169 | 274.0386 | 96.6458 | 16.16686 | – |
| 2026 Apr 26 17:58 | 2026 Apr 24 12:30:37 | 73.9574 | 0.00167 | 9.8169 | 274.0386 | 96.6458 | 16.16686 | – |
| 2026 Apr 25 17:58 | 2026 Apr 24 12:30:37 | 73.9574 | 0.00167 | 9.8169 | 274.0386 | 96.6458 | 16.16686 | – |
| 2026 Apr 24 17:59 | 2026 Apr 24 12:30:37 | 73.9574 | 0.00167 | 9.8169 | 274.0386 | 96.6458 | 16.16686 | – |
| 2026 Apr 23 17:57 | 2026 Apr 19 04:17:02 | 73.9654 | 0.00208 | 10.6519 | 293.2315 | 96.6458 | 16.16686 | – |
| 2026 Apr 22 17:57 | 2026 Apr 19 04:17:02 | 73.9654 | 0.00208 | 10.6519 | 293.2315 | 96.6458 | 16.16686 | – |
| 2026 Apr 21 17:57 | 2026 Apr 19 04:17:02 | 73.9654 | 0.00208 | 10.6519 | 293.2315 | 96.6458 | 16.16686 | – |
| 2026 Apr 20 17:57 | 2026 Apr 19 04:17:02 | 73.9654 | 0.00208 | 10.6519 | 293.2315 | 96.6458 | 16.16686 | – |
| 2026 Apr 19 17:58 | 2026 Apr 19 04:17:02 | 73.9654 | 0.00208 | 10.6519 | 293.2315 | 96.6458 | 16.16686 | – |
| 2026 Apr 18 17:56 | 2026 Apr 13 05:28:14 | 73.9696 | 0.00227 | 11.5663 | 306.1381 | 96.6458 | 16.16686 | – |
| 2026 Apr 16 17:57 | 2026 Apr 13 05:28:14 | 73.9696 | 0.00227 | 11.5663 | 306.1381 | 96.6458 | 16.16686 | – |
| 2026 Apr 14 17:57 | 2026 Apr 13 05:28:14 | 73.9696 | 0.00227 | 11.5663 | 306.1381 | 96.6458 | 16.16686 | – |
| 2026 Apr 13 17:57 | 2026 Apr 13 05:28:14 | 73.9696 | 0.00227 | 11.5663 | 306.1381 | 96.6458 | 16.16686 | – |
| 2026 Apr 12 17:57 | 2026 Apr 08 06:30:52 | 73.9722 | 0.00230 | 12.3211 | 314.7006 | 96.6458 | 16.16686 | – |
| 2026 Apr 11 17:57 | 2026 Apr 08 06:30:52 | 73.9722 | 0.00230 | 12.3211 | 314.7006 | 96.6458 | 16.16686 | – |
| 2026 Apr 10 17:58 | 2026 Apr 08 06:30:52 | 73.9722 | 0.00230 | 12.3211 | 314.7006 | 96.6458 | 16.16686 | – |
| 2026 Apr 09 18:01 | 2026 Apr 08 06:30:52 | 73.9722 | 0.00230 | 12.3211 | 314.7006 | 96.6458 | 16.16686 | – |
| 2026 Apr 08 17:57 | 2026 Apr 08 06:30:52 | 73.9722 | 0.00230 | 12.3211 | 314.7006 | 96.6458 | 16.16686 | – |
| 2026 Apr 07 17:57 | 2026 Apr 02 06:34:59 | 73.9759 | 0.00221 | 13.2257 | 324.2081 | 96.6458 | 16.16686 | – |